Time;durP1;ratioP1;P1;durP2;ratioP2;P2;SDS_P1;SDS_P2;PMS_P1;PMS_P2;Temp;Humidity;BMP_temperature;BMP_pressure;BME280_temperature;BME280_humidity;BME280_pressure;Samples;Min_cycle;Max_cycle;Signal;HPM_P1;HPM_P2
2023/01/05 00:02:20;;;;;;;9.43;2.17;;;;;16.20;101355.00;;;;5054273;28;20207;-76
2023/01/05 00:04:47;;;;;;;11.55;2.63;;;;;16.20;101347.00;;;;5055917;28;20211;-75
2023/01/05 00:07:14;;;;;;;23.00;3.25;;;;;16.20;101356.00;;;;5055144;28;20565;-75
2023/01/05 00:09:41;;;;;;;12.27;2.25;;;;;16.20;101352.00;;;;5053961;28;20200;-76
2023/01/05 00:23:10;;;;;;;10.43;2.58;;;;;16.10;101372.00;;;;5055571;28;20210;-76
2023/01/05 00:25:39;;;;;;;11.15;2.70;;;;;16.10;101375.00;;;;5069261;28;20205;-76
2023/01/05 00:28:06;;;;;;;10.80;2.55;;;;;16.10;101360.00;;;;5068437;28;20207;-76
2023/01/05 00:30:39;;;;;;;15.10;2.42;;;;;16.00;101358.00;;;;5054315;28;20219;-76
2023/01/05 00:33:09;;;;;;;16.15;2.50;;;;;16.10;101360.00;;;;5054756;28;20196;-76
2023/01/05 00:35:37;;;;;;;10.90;2.05;;;;;16.10;101364.00;;;;5054899;28;20203;-76
2023/01/05 00:38:05;;;;;;;12.07;2.65;;;;;16.10;101368.00;;;;5055069;28;20245;-76
2023/01/05 00:40:32;;;;;;;10.27;2.05;;;;;16.10;101355.00;;;;5056261;28;20198;-76
2023/01/05 00:43:00;;;;;;;13.98;3.20;;;;;16.10;101363.00;;;;5073062;28;20300;-77
2023/01/05 00:45:27;;;;;;;6.68;2.00;;;;;16.10;101365.00;;;;5073636;28;20238;-76
2023/01/05 00:47:56;;;;;;;11.07;1.77;;;;;16.10;101372.00;;;;5073850;28;20199;-76
2023/01/05 00:50:24;;;;;;;12.48;2.33;;;;;16.20;101375.00;;;;5073554;28;20202;-76
2023/01/05 00:52:51;;;;;;;9.50;2.55;;;;;16.20;101375.00;;;;5074096;28;20199;-76
2023/01/05 00:55:18;;;;;;;10.02;2.22;;;;;16.20;101382.00;;;;5064323;28;20230;-76
2023/01/05 00:57:45;;;;;;;13.02;2.40;;;;;16.20;101393.00;;;;5053904;28;20203;-76
2023/01/05 01:00:16;;;;;;;12.10;2.33;;;;;16.20;101386.00;;;;5053867;28;20199;-76
2023/01/05 01:02:43;;;;;;;9.55;2.15;;;;;16.30;101385.00;;;;5054111;28;20213;-76
2023/01/05 01:05:12;;;;;;;13.55;2.28;;;;;16.20;101385.00;;;;5053818;28;20214;-76
2023/01/05 01:07:40;;;;;;;16.58;3.08;;;;;16.20;101384.00;;;;5054180;28;20219;-76
2023/01/05 01:10:09;;;;;;;12.25;2.90;;;;;16.20;101394.00;;;;5058182;28;20202;-76
2023/01/05 01:12:36;;;;;;;11.38;2.40;;;;;16.20;101397.00;;;;5068830;28;20207;-76
2023/01/05 01:15:04;;;;;;;15.80;2.55;;;;;16.20;101384.00;;;;5070555;28;20229;-77
2023/01/05 01:17:32;;;;;;;14.98;3.35;;;;;16.20;101396.00;;;;5070141;28;20659;-76
2023/01/05 01:19:59;;;;;;;11.23;2.53;;;;;16.20;101400.00;;;;5068692;28;20203;-76
2023/01/05 01:22:28;;;;;;;12.45;2.15;;;;;16.20;101394.00;;;;5050413;28;20191;-77
2023/01/05 01:24:55;;;;;;;9.10;2.03;;;;;16.20;101403.00;;;;5049590;28;20210;-76
2023/01/05 01:27:22;;;;;;;11.63;2.30;;;;;16.20;101405.00;;;;5050209;28;20199;-76
2023/01/05 01:29:49;;;;;;;11.63;1.83;;;;;16.20;101415.00;;;;5062087;28;20227;-76
2023/01/05 01:32:17;;;;;;;11.32;2.80;;;;;16.20;101414.00;;;;5068798;28;20613;-76
2023/01/05 01:34:44;;;;;;;10.02;1.60;;;;;16.20;101410.00;;;;5069828;28;20231;-76
2023/01/05 01:37:12;;;;;;;9.85;2.58;;;;;16.20;101415.00;;;;5070515;28;20717;-76
2023/01/05 01:39:40;;;;;;;8.75;2.05;;;;;16.20;101415.00;;;;5070299;28;20203;-76
2023/01/05 01:42:13;;;;;;;14.10;3.08;;;;;16.10;101428.00;;;;5069918;28;20202;-76
2023/01/05 01:44:52;;;;;;;12.18;1.75;;;;;16.10;101437.00;;;;5066857;28;20706;-76
2023/01/05 01:47:38;;;;;;;7.60;2.05;;;;;16.20;101429.00;;;;5053477;28;20764;-77
2023/01/05 01:50:10;;;;;;;8.35;2.38;;;;;16.20;101437.00;;;;5048056;28;20203;-76
2023/01/05 01:52:38;;;;;;;12.70;2.60;;;;;16.20;101443.00;;;;5049853;28;20200;-76
2023/01/05 01:55:08;;;;;;;13.73;2.40;;;;;16.20;101441.00;;;;5050328;28;20309;-76
2023/01/05 01:57:36;;;;;;;11.00;2.55;;;;;16.20;101439.00;;;;5049437;28;20206;-76
2023/01/05 02:00:07;;;;;;;11.55;2.15;;;;;16.20;101431.00;;;;5049529;28;20214;-76
2023/01/05 02:02:34;;;;;;;7.88;2.05;;;;;16.20;101446.00;;;;5050469;28;20200;-76
2023/01/05 02:05:05;;;;;;;13.45;2.38;;;;;16.20;101448.00;;;;5049534;28;20204;-76
2023/01/05 02:07:37;;;;;;;16.10;2.60;;;;;16.20;101442.00;;;;5049668;28;20207;-76
2023/01/05 02:10:06;;;;;;;13.73;2.67;;;;;16.20;101447.00;;;;5064570;28;20690;-76
2023/01/05 02:12:44;;;;;;;14.45;2.83;;;;;16.20;101447.00;;;;5069445;28;20210;-76
2023/01/05 02:15:24;;;;;;;13.57;2.22;;;;;16.20;101451.00;;;;5069560;28;20229;-76
2023/01/05 02:18:02;;;;;;;7.82;2.53;;;;;16.20;101443.00;;;;5069187;28;20198;-76
2023/01/05 02:20:47;;;;;;;10.32;2.30;;;;;16.10;101446.00;;;;5063034;28;20194;-75
2023/01/05 02:24:06;;;;;;;12.77;2.17;;;;;16.10;101453.00;;;;5049003;28;20199;-76
2023/01/05 02:27:05;;;;;;;9.20;1.80;;;;;16.00;101439.00;;;;5048580;28;21001;-75
2023/01/05 02:29:57;;;;;;;16.00;2.35;;;;;16.00;101445.00;;;;5048517;28;20223;-76
2023/01/05 02:32:28;;;;;;;15.88;2.58;;;;;16.10;101451.00;;;;5062142;28;20207;-76
2023/01/05 02:35:10;;;;;;;12.30;2.45;;;;;16.00;101436.00;;;;5068517;28;20234;-76
2023/01/05 02:37:45;;;;;;;12.43;2.20;;;;;16.10;101458.00;;;;5058820;28;20214;-76
2023/01/05 02:40:18;;;;;;;11.52;2.28;;;;;16.10;101461.00;;;;5048678;28;20492;-76
2023/01/05 02:42:48;;;;;;;10.95;2.00;;;;;16.10;101463.00;;;;5048792;28;20748;-76
2023/01/05 02:45:16;;;;;;;14.48;2.60;;;;;16.10;101457.00;;;;5054795;28;20230;-76
2023/01/05 02:47:46;;;;;;;14.63;3.10;;;;;16.10;101460.00;;;;5068791;28;20203;-76
2023/01/05 02:50:19;;;;;;;13.35;2.40;;;;;16.10;101462.00;;;;5068510;28;20202;-76
2023/01/05 02:52:56;;;;;;;14.70;2.90;;;;;16.10;101464.00;;;;5066978;28;20199;-76
2023/01/05 02:55:28;;;;;;;12.90;2.28;;;;;16.10;101467.00;;;;5049065;28;20223;-76
2023/01/05 02:58:00;;;;;;;14.63;3.30;;;;;16.10;101472.00;;;;5048909;28;20636;-76
2023/01/05 03:00:33;;;;;;;14.38;2.83;;;;;16.10;101476.00;;;;5048143;28;20206;-75
2023/01/05 03:03:07;;;;;;;14.27;2.58;;;;;16.10;101467.00;;;;5060679;28;20194;-76
2023/01/05 03:05:38;;;;;;;12.65;2.72;;;;;16.10;101460.00;;;;5069089;28;20199;-76
2023/01/05 03:08:09;;;;;;;10.65;2.47;;;;;16.10;101471.00;;;;5068623;28;20215;-76
2023/01/05 03:13:42;;;;;;;14.48;3.00;;;;;16.20;101464.00;;;;5054464;28;20683;-76
2023/01/05 03:16:11;;;;;;;12.20;2.58;;;;;16.20;101470.00;;;;5068125;28;20238;-76
2023/01/05 03:21:23;;;;;;;13.68;2.33;;;;;16.20;101466.00;;;;5057379;28;20242;-76
2023/01/05 03:37:59;;;;;;;13.13;2.33;;;;;16.10;101478.00;;;;5048326;28;20573;-75
2023/01/05 03:40:30;;;;;;;8.35;1.88;;;;;16.10;101473.00;;;;5049061;28;20196;-77
2023/01/05 03:42:58;;;;;;;9.30;2.00;;;;;16.10;101482.00;;;;5047824;28;20678;-76
2023/01/05 03:45:31;;;;;;;12.38;2.65;;;;;16.10;101481.00;;;;5048608;28;20239;-75
2023/01/05 03:47:59;;;;;;;9.70;1.83;;;;;16.20;101477.00;;;;5048489;28;20203;-76
2023/01/05 03:50:27;;;;;;;13.07;2.15;;;;;16.10;101478.00;;;;5047667;28;20206;-76
2023/01/05 03:52:55;;;;;;;8.80;1.92;;;;;16.20;101473.00;;;;5048842;28;20235;-75
2023/01/05 03:55:22;;;;;;;11.90;3.22;;;;;16.20;101481.00;;;;5047702;28;20250;-75
2023/01/05 03:57:49;;;;;;;14.65;2.55;;;;;16.20;101480.00;;;;5056576;28;20771;-76
2023/01/05 04:00:17;;;;;;;11.90;2.25;;;;;16.20;101489.00;;;;5068107;28;20205;-76
2023/01/05 04:02:44;;;;;;;17.30;2.63;;;;;16.20;101475.00;;;;5056917;28;20697;-75
2023/01/05 04:05:11;;;;;;;9.32;2.60;;;;;16.20;101478.00;;;;5048468;28;20626;-76
2023/01/05 04:07:40;;;;;;;13.13;3.28;;;;;16.20;101484.00;;;;5047739;28;20203;-75
2023/01/05 04:10:08;;;;;;;9.60;1.92;;;;;16.20;101483.00;;;;5048260;28;20204;-75
2023/01/05 04:12:35;;;;;;;8.80;2.20;;;;;16.20;101480.00;;;;5048142;28;20199;-76
2023/01/05 04:15:03;;;;;;;11.18;2.42;;;;;16.20;101487.00;;;;5055675;28;20218;-76
2023/01/05 04:17:30;;;;;;;7.20;1.90;;;;;16.20;101479.00;;;;5067932;28;20198;-76
2023/01/05 04:19:57;;;;;;;10.70;2.10;;;;;16.20;101488.00;;;;5054574;28;20204;-76
2023/01/05 04:22:25;;;;;;;11.80;2.53;;;;;16.30;101485.00;;;;5046657;28;20707;-76
2023/01/05 04:24:53;;;;;;;5.97;1.58;;;;;16.30;101484.00;;;;5047776;28;20203;-76
2023/01/05 04:27:20;;;;;;;7.80;1.90;;;;;16.30;101481.00;;;;5047284;28;20200;-76
2023/01/05 04:29:48;;;;;;;11.02;2.08;;;;;16.30;101479.00;;;;5065518;28;20606;-75
2023/01/05 04:32:15;;;;;;;8.93;2.17;;;;;16.30;101485.00;;;;5067085;28;20206;-76
2023/01/05 04:34:42;;;;;;;14.10;3.13;;;;;16.30;101481.00;;;;5067411;28;20234;-76
2023/01/05 04:37:09;;;;;;;6.75;1.75;;;;;16.30;101481.00;;;;5052930;28;20772;-76
2023/01/05 04:39:37;;;;;;;12.05;2.58;;;;;16.30;101486.00;;;;5046621;28;20449;-76
2023/01/05 04:42:05;;;;;;;12.85;2.35;;;;;16.30;101483.00;;;;5047666;28;20227;-76
2023/01/05 04:44:33;;;;;;;12.93;2.05;;;;;16.30;101486.00;;;;5051899;28;20234;-76
2023/01/05 04:47:00;;;;;;;13.65;2.65;;;;;16.30;101490.00;;;;5070910;28;20202;-76
2023/01/05 04:49:27;;;;;;;11.93;1.98;;;;;16.30;101494.00;;;;5070766;28;20668;-76
2023/01/05 04:51:54;;;;;;;13.63;2.20;;;;;16.30;101500.00;;;;5070682;28;20201;-76
2023/01/05 04:54:21;;;;;;;12.30;2.75;;;;;16.30;101498.00;;;;5054322;28;20212;-77
2023/01/05 04:56:49;;;;;;;9.38;2.03;;;;;16.30;101498.00;;;;5051177;28;20562;-76
2023/01/05 04:59:17;;;;;;;12.55;2.10;;;;;16.30;101506.00;;;;5051131;28;20210;-76
2023/01/05 05:01:45;;;;;;;12.38;1.92;;;;;16.30;101503.00;;;;5051333;28;20199;-76
2023/01/05 05:04:12;;;;;;;8.10;1.85;;;;;16.30;101504.00;;;;5050681;28;20199;-75
2023/01/05 05:06:39;;;;;;;16.42;2.20;;;;;16.30;101505.00;;;;5050341;28;20207;-76
2023/01/05 05:09:06;;;;;;;11.60;2.78;;;;;16.30;101512.00;;;;5051071;28;20602;-76
2023/01/05 05:11:34;;;;;;;9.13;2.10;;;;;16.30;101513.00;;;;5050961;28;20212;-76
2023/01/05 05:14:01;;;;;;;14.77;3.10;;;;;16.30;101513.00;;;;5052846;28;20214;-76
2023/01/05 05:16:29;;;;;;;12.50;2.17;;;;;16.30;101517.00;;;;5070507;28;20229;-76
2023/01/05 05:18:57;;;;;;;11.55;1.65;;;;;16.30;101512.00;;;;5070559;28;20653;-76
2023/01/05 05:21:24;;;;;;;12.25;2.90;;;;;16.30;101516.00;;;;5061094;28;20272;-75
2023/01/05 05:23:51;;;;;;;6.78;1.92;;;;;16.30;101526.00;;;;5050344;28;20199;-75
2023/01/05 05:26:18;;;;;;;10.82;1.92;;;;;16.30;101527.00;;;;5049234;28;20568;-76
2023/01/05 05:28:46;;;;;;;13.82;2.55;;;;;16.30;101535.00;;;;5058779;28;20211;-75
2023/01/05 05:31:13;;;;;;;16.75;2.33;;;;;16.30;101538.00;;;;5055695;28;20290;-76
2023/01/05 05:33:41;;;;;;;7.90;1.35;;;;;16.30;101531.00;;;;5070307;28;20606;-75
2023/01/05 05:36:09;;;;;;;15.05;2.22;;;;;16.30;101536.00;;;;5070378;28;20232;-76
2023/01/05 05:38:36;;;;;;;10.95;2.08;;;;;16.30;101539.00;;;;5070589;28;20222;-76
2023/01/05 05:41:04;;;;;;;11.00;1.80;;;;;16.30;101549.00;;;;5070857;28;20202;-76
2023/01/05 05:43:31;;;;;;;9.68;1.60;;;;;16.30;101554.00;;;;5069171;28;20206;-76
2023/01/05 05:45:58;;;;;;;12.77;2.58;;;;;16.30;101554.00;;;;5050595;28;20207;-75
2023/01/05 05:48:26;;;;;;;13.00;2.72;;;;;16.40;101558.00;;;;5050100;28;20199;-76
2023/01/05 05:50:55;;;;;;;17.92;3.30;;;;;16.30;101560.00;;;;5047002;28;20670;-76
2023/01/05 05:53:22;;;;;;;7.47;2.17;;;;;16.40;101573.00;;;;5050666;28;20230;-76
2023/01/05 05:55:50;;;;;;;13.18;2.65;;;;;16.40;101567.00;;;;5049898;28;20231;-75
2023/01/05 05:58:18;;;;;;;13.45;2.63;;;;;16.40;101577.00;;;;5050526;28;20210;-76
2023/01/05 06:00:45;;;;;;;8.65;1.98;;;;;16.40;101573.00;;;;5051185;28;20230;-76
2023/01/05 06:03:13;;;;;;;11.75;1.80;;;;;16.40;101567.00;;;;5048926;28;20242;-76
2023/01/05 06:05:40;;;;;;;16.02;2.10;;;;;16.40;101568.00;;;;5050336;28;20667;-76
2023/01/05 06:08:09;;;;;;;10.57;2.25;;;;;16.40;101583.00;;;;5050174;28;20202;-76
2023/01/05 06:10:36;;;;;;;11.27;2.30;;;;;16.40;101588.00;;;;5049975;28;20199;-76
2023/01/05 06:13:04;;;;;;;12.52;2.22;;;;;16.50;101585.00;;;;5050074;28;20670;-76
2023/01/05 06:15:31;;;;;;;10.20;3.30;;;;;16.50;101580.00;;;;5050304;28;20219;-76
2023/01/05 06:17:59;;;;;;;11.90;1.80;;;;;16.40;101584.00;;;;5050657;28;20643;-76
2023/01/05 06:20:26;;;;;;;12.18;2.20;;;;;16.50;101593.00;;;;5049956;28;20205;-76
2023/01/05 06:22:53;;;;;;;11.27;2.05;;;;;16.50;101592.00;;;;5050051;28;20200;-76
2023/01/05 06:25:22;;;;;;;8.73;1.88;;;;;16.50;101591.00;;;;5049351;28;20196;-76
2023/01/05 06:27:49;;;;;;;19.25;2.47;;;;;16.50;101602.00;;;;5050081;28;20207;-76
2023/01/05 06:30:16;;;;;;;11.23;1.65;;;;;16.50;101602.00;;;;5049875;28;20222;-76
2023/01/05 06:32:43;;;;;;;9.85;1.90;;;;;16.50;101603.00;;;;5049182;28;20415;-76
2023/01/05 06:35:11;;;;;;;15.18;1.90;;;;;16.50;101613.00;;;;5055333;28;20225;-76
2023/01/05 06:37:38;;;;;;;11.45;2.20;;;;;16.50;101609.00;;;;5067807;28;20191;-76
2023/01/05 06:40:08;;;;;;;13.95;2.47;;;;;16.50;101624.00;;;;5069168;28;20481;-76
2023/01/05 06:42:37;;;;;;;10.70;2.22;;;;;16.50;101623.00;;;;5069231;28;20203;-76
2023/01/05 06:45:05;;;;;;;13.20;1.83;;;;;16.50;101635.00;;;;5069396;28;20238;-76
2023/01/05 06:47:32;;;;;;;13.07;2.42;;;;;16.50;101634.00;;;;5068869;28;20205;-76
2023/01/05 06:50:00;;;;;;;14.15;3.38;;;;;16.50;101644.00;;;;5069366;28;20187;-76
2023/01/05 06:52:27;;;;;;;11.05;2.13;;;;;16.50;101633.00;;;;5059434;28;20669;-76
2023/01/05 06:54:55;;;;;;;12.65;2.75;;;;;16.50;101630.00;;;;5048720;28;20210;-76
2023/01/05 06:57:23;;;;;;;11.25;2.40;;;;;16.50;101633.00;;;;5048274;28;20200;-76
2023/01/05 06:59:51;;;;;;;8.98;2.03;;;;;16.40;101632.00;;;;5054189;28;20260;-76
2023/01/05 07:02:18;;;;;;;9.18;2.38;;;;;16.40;101637.00;;;;5068630;28;20199;-76
2023/01/05 07:04:46;;;;;;;14.27;2.35;;;;;16.40;101644.00;;;;5058101;28;20199;-76
2023/01/05 07:07:14;;;;;;;11.70;2.03;;;;;16.40;101638.00;;;;5067701;28;20202;-76
2023/01/05 07:09:41;;;;;;;12.90;2.40;;;;;16.40;101645.00;;;;5057991;28;20211;-76
2023/01/05 07:12:09;;;;;;;10.43;2.05;;;;;16.40;101649.00;;;;5048230;28;20199;-75
2023/01/05 07:14:36;;;;;;;11.23;2.15;;;;;16.40;101651.00;;;;5048121;28;20188;-76
2023/01/05 07:17:05;;;;;;;12.20;2.45;;;;;16.30;101660.00;;;;5048103;28;20723;-76
2023/01/05 07:19:32;;;;;;;10.27;1.95;;;;;16.30;101651.00;;;;5047889;28;20211;-76
2023/01/05 07:22:00;;;;;;;10.85;1.70;;;;;16.30;101655.00;;;;5048754;28;20195;-76
2023/01/05 07:24:27;;;;;;;12.38;2.60;;;;;16.30;101663.00;;;;5048301;28;20207;-76
2023/01/05 07:26:54;;;;;;;10.88;2.55;;;;;16.30;101666.00;;;;5053702;28;20206;-76
2023/01/05 07:29:21;;;;;;;11.43;2.40;;;;;16.30;101672.00;;;;5066925;28;20226;-76
2023/01/05 07:31:51;;;;;;;14.30;2.30;;;;;16.30;101669.00;;;;5069456;28;20220;-76
2023/01/05 07:34:19;;;;;;;14.52;2.47;;;;;16.30;101670.00;;;;5068665;28;20207;-76
2023/01/05 07:36:47;;;;;;;13.43;2.65;;;;;16.30;101674.00;;;;5067684;28;20230;-76
2023/01/05 07:39:14;;;;;;;12.60;2.53;;;;;16.30;101668.00;;;;5068845;28;20210;-76
2023/01/05 07:41:41;;;;;;;11.02;2.13;;;;;16.30;101676.00;;;;5067886;28;20191;-76
2023/01/05 07:44:09;;;;;;;10.45;2.38;;;;;16.30;101673.00;;;;5056349;28;20227;-76
2023/01/05 07:46:36;;;;;;;11.73;2.22;;;;;16.30;101675.00;;;;5051666;28;20208;-75
2023/01/05 07:49:03;;;;;;;10.13;2.17;;;;;16.30;101670.00;;;;5048016;28;20196;-76
2023/01/05 07:51:32;;;;;;;10.50;2.13;;;;;16.30;101677.00;;;;5047153;28;20584;-76
2023/01/05 07:53:59;;;;;;;8.90;1.80;;;;;16.30;101682.00;;;;5048130;28;20216;-76
2023/01/05 07:56:27;;;;;;;10.75;2.83;;;;;16.30;101673.00;;;;5047323;28;20780;-77
2023/01/05 07:58:54;;;;;;;12.05;1.98;;;;;16.30;101679.00;;;;5047738;28;20199;-76
2023/01/05 08:01:21;;;;;;;13.45;3.10;;;;;16.30;101687.00;;;;5059777;28;20203;-76
2023/01/05 08:03:48;;;;;;;6.68;2.10;;;;;16.30;101685.00;;;;5067948;28;20197;-76
2023/01/05 08:06:17;;;;;;;14.52;2.45;;;;;16.30;101697.00;;;;5067810;28;20210;-76
2023/01/05 08:08:47;;;;;;;8.13;1.75;;;;;16.20;101695.00;;;;5067316;28;20205;-76
2023/01/05 08:11:16;;;;;;;10.73;2.20;;;;;16.20;101698.00;;;;5067040;28;20202;-76
2023/01/05 08:13:59;;;;;;;11.63;1.98;;;;;16.30;101707.00;;;;5067604;28;20198;-76
2023/01/05 08:16:26;;;;;;;12.23;1.70;;;;;16.30;101718.00;;;;5066759;28;20230;-76
2023/01/05 08:18:54;;;;;;;18.55;2.33;;;;;16.30;101713.00;;;;5048261;28;20203;-76
2023/01/05 08:21:21;;;;;;;12.82;2.88;;;;;16.30;101712.00;;;;5051123;28;20426;-76
2023/01/05 08:23:52;;;;;;;8.30;1.98;;;;;16.30;101719.00;;;;5051758;28;20199;-76
2023/01/05 08:26:21;;;;;;;8.55;1.70;;;;;16.30;101716.00;;;;5050475;28;20219;-76
2023/01/05 08:28:49;;;;;;;9.05;2.40;;;;;16.30;101722.00;;;;5051428;28;20223;-76
2023/01/05 08:31:19;;;;;;;10.95;2.45;;;;;16.30;101726.00;;;;5051032;28;20204;-77
2023/01/05 08:33:46;;;;;;;13.50;2.42;;;;;16.30;101729.00;;;;5052176;28;20202;-76
2023/01/05 08:36:15;;;;;;;11.07;2.42;;;;;16.30;101743.00;;;;5051543;28;20712;-76
2023/01/05 08:38:47;;;;;;;13.32;2.60;;;;;16.30;101736.00;;;;5050391;28;20670;-76
2023/01/05 08:41:17;;;;;;;13.35;2.13;;;;;16.30;101740.00;;;;5051117;28;20253;-76
2023/01/05 08:43:44;;;;;;;9.10;2.50;;;;;16.30;101738.00;;;;5050787;28;20199;-76
2023/01/05 08:46:11;;;;;;;11.25;2.17;;;;;16.30;101743.00;;;;5069283;28;20214;-76
2023/01/05 08:48:39;;;;;;;4.82;1.13;;;;;16.30;101741.00;;;;5071652;28;20626;-76
2023/01/05 08:51:06;;;;;;;9.00;2.50;;;;;16.30;101738.00;;;;5064977;28;20565;-76
2023/01/05 08:53:34;;;;;;;10.30;1.98;;;;;16.30;101755.00;;;;5051578;28;20204;-76
2023/01/05 08:56:02;;;;;;;10.00;2.75;;;;;16.30;101765.00;;;;5050801;28;20785;-76
2023/01/05 08:58:31;;;;;;;9.25;1.92;;;;;16.30;101771.00;;;;5051163;28;20211;-76
2023/01/05 09:00:58;;;;;;;7.90;1.70;;;;;16.40;101761.00;;;;5060660;28;20230;-76
2023/01/05 09:03:25;;;;;;;10.90;2.92;;;;;16.40;101770.00;;;;5069339;28;20211;-76
2023/01/05 09:05:53;;;;;;;9.27;1.98;;;;;16.40;101773.00;;;;5071530;28;20663;-77
2023/01/05 09:08:21;;;;;;;14.20;2.03;;;;;16.40;101782.00;;;;5062983;28;20207;-76
2023/01/05 09:10:48;;;;;;;11.95;2.45;;;;;16.40;101785.00;;;;5051064;28;20199;-77
2023/01/05 09:13:15;;;;;;;8.63;2.10;;;;;16.40;101786.00;;;;5050345;28;20673;-76
2023/01/05 09:15:44;;;;;;;11.48;2.08;;;;;16.40;101791.00;;;;5050209;28;20203;-76
2023/01/05 09:18:11;;;;;;;11.27;2.35;;;;;16.40;101788.00;;;;5056573;28;20299;-76
2023/01/05 09:20:38;;;;;;;10.52;1.98;;;;;16.50;101789.00;;;;5070277;28;20206;-76
2023/01/05 09:23:06;;;;;;;11.10;1.63;;;;;16.50;101785.00;;;;5049666;28;20192;-76
2023/01/05 09:25:33;;;;;;;12.43;2.67;;;;;16.50;101791.00;;;;5049774;28;20199;-76
2023/01/05 09:28:00;;;;;;;12.30;1.85;;;;;16.50;101791.00;;;;5050480;28;20214;-77
2023/01/05 09:30:27;;;;;;;12.65;2.67;;;;;16.50;101794.00;;;;5048461;28;20231;-76
2023/01/05 09:32:56;;;;;;;13.35;2.78;;;;;16.50;101797.00;;;;5049167;28;20199;-76
2023/01/05 09:35:23;;;;;;;10.55;2.50;;;;;16.50;101805.00;;;;5049517;28;20222;-76
2023/01/05 09:37:50;;;;;;;10.13;1.55;;;;;16.50;101797.00;;;;5050595;28;20312;-77
2023/01/05 09:40:18;;;;;;;13.52;2.58;;;;;16.50;101804.00;;;;5049689;28;20203;-76
2023/01/05 09:42:47;;;;;;;10.45;2.33;;;;;16.50;101804.00;;;;5049480;28;20211;-76
2023/01/05 09:45:27;;;;;;;14.68;2.38;;;;;16.40;101806.00;;;;5049135;28;20228;-77
2023/01/05 09:47:59;;;;;;;9.23;2.30;;;;;16.50;101812.00;;;;5054962;28;20569;-76
2023/01/05 09:50:29;;;;;;;14.98;2.85;;;;;16.50;101801.00;;;;5058266;28;20207;-76
2023/01/05 09:52:59;;;;;;;6.25;1.65;;;;;16.50;101816.00;;;;5049755;28;20203;-76
2023/01/05 09:55:30;;;;;;;12.27;1.90;;;;;16.60;101819.00;;;;5049606;28;20576;-76
2023/01/05 09:58:00;;;;;;;9.52;2.17;;;;;16.60;101819.00;;;;5069018;28;20288;-76
2023/01/05 10:00:30;;;;;;;6.70;1.90;;;;;16.60;101826.00;;;;5061080;28;20207;-77
2023/01/05 10:03:02;;;;;;;10.77;1.60;;;;;16.60;101822.00;;;;5064495;28;20592;-76
2023/01/05 10:05:39;;;;;;;18.05;3.05;;;;;16.60;101826.00;;;;5049298;28;20261;-76
2023/01/05 10:08:15;;;;;;;8.18;1.92;;;;;16.60;101826.00;;;;5049906;28;20558;-76
2023/01/05 10:13:01;;;;;;;17.35;3.25;;;;;16.60;101828.00;;;;5048652;28;20200;-77
2023/01/05 10:13:36;;;;;;;12.82;2.00;;;;;16.70;101837.00;;;;5049217;28;20215;-76
2023/01/05 10:16:04;;;;;;;14.50;2.80;;;;;16.70;101829.00;;;;5050074;28;20238;-77
2023/01/05 10:18:36;;;;;;;15.68;2.38;;;;;16.70;101830.00;;;;5049217;28;20194;-76
2023/01/05 10:21:12;;;;;;;13.25;2.47;;;;;16.70;101834.00;;;;5048874;28;20207;-76
2023/01/05 10:23:55;;;;;;;13.90;2.22;;;;;16.70;101833.00;;;;5049576;28;20212;-76
2023/01/05 10:26:28;;;;;;;7.82;1.50;;;;;16.70;101830.00;;;;5049721;28;20204;-76
2023/01/05 10:28:59;;;;;;;9.93;2.42;;;;;16.80;101834.00;;;;5049669;28;20249;-76
2023/01/05 10:31:38;;;;;;;7.47;1.75;;;;;16.80;101842.00;;;;5049470;28;20700;-76
2023/01/05 10:34:14;;;;;;;14.20;2.55;;;;;16.80;101845.00;;;;5049492;28;20207;-76
2023/01/05 10:36:56;;;;;;;9.23;2.50;;;;;16.80;101838.00;;;;5060623;28;20219;-76
2023/01/05 10:39:31;;;;;;;9.75;2.78;;;;;16.80;101854.00;;;;5069535;28;20203;-77
2023/01/05 10:42:05;;;;;;;11.27;2.00;;;;;16.80;101860.00;;;;5068851;28;20703;-76
2023/01/05 10:44:52;;;;;;;13.35;2.17;;;;;16.80;101864.00;;;;5069264;28;20238;-76
2023/01/05 10:47:21;;;;;;;11.27;2.25;;;;;16.80;101855.00;;;;5069302;28;20226;-76
2023/01/05 10:49:50;;;;;;;7.85;2.20;;;;;16.90;101861.00;;;;5058153;28;20209;-76
2023/01/05 10:52:19;;;;;;;11.70;2.63;;;;;16.90;101852.00;;;;5063526;28;20212;-76
2023/01/05 10:54:48;;;;;;;10.55;2.33;;;;;16.90;101845.00;;;;5057637;28;20282;-76
2023/01/05 10:57:37;;;;;;;13.85;2.05;;;;;16.90;101834.00;;;;5049537;28;20227;-76
2023/01/05 11:00:11;;;;;;;7.07;1.63;;;;;17.00;101831.00;;;;5049006;28;20674;-76
2023/01/05 11:02:41;;;;;;;12.15;2.97;;;;;17.00;101840.00;;;;5048994;28;20209;-76
2023/01/05 11:05:21;;;;;;;11.40;1.95;;;;;17.00;101838.00;;;;5051807;28;20191;-76
2023/01/05 11:07:50;;;;;;;12.95;2.58;;;;;17.10;101835.00;;;;5049091;28;20203;-76
2023/01/05 11:10:24;;;;;;;13.60;2.05;;;;;17.10;101832.00;;;;5049067;28;20200;-76
2023/01/05 11:13:02;;;;;;;6.15;2.20;;;;;17.10;101828.00;;;;5051940;28;20212;-76
2023/01/05 11:15:31;;;;;;;8.43;1.95;;;;;17.30;101837.00;;;;5065867;28;20195;-76
2023/01/05 11:17:59;;;;;;;9.38;1.88;;;;;17.30;101845.00;;;;5050732;28;20237;-76
2023/01/05 11:20:28;;;;;;;9.30;2.00;;;;;17.30;101847.00;;;;5066710;28;20624;-76
2023/01/05 11:22:56;;;;;;;12.25;2.53;;;;;17.40;101847.00;;;;5051976;28;20257;-76
2023/01/05 11:25:27;;;;;;;16.23;2.38;;;;;17.40;101846.00;;;;5064097;28;20203;-76
2023/01/05 11:28:11;;;;;;;10.10;2.28;;;;;17.30;101847.00;;;;5050444;28;20207;-76
2023/01/05 11:30:41;;;;;;;7.88;1.83;;;;;17.40;101841.00;;;;5047831;28;20219;-76
2023/01/05 11:33:22;;;;;;;11.98;2.42;;;;;17.40;101848.00;;;;5048794;28;20673;-76
2023/01/05 11:35:51;;;;;;;13.00;2.53;;;;;17.50;101839.00;;;;5048795;28;20195;-77
2023/01/05 11:38:23;;;;;;;9.68;2.30;;;;;17.50;101843.00;;;;5063305;28;20226;-76
2023/01/05 11:40:51;;;;;;;20.25;2.88;;;;;17.50;101839.00;;;;5064129;28;20230;-77
2023/01/05 11:43:21;;;;;;;10.13;2.25;;;;;17.60;101842.00;;;;5048983;28;20196;-77
2023/01/05 11:45:51;;;;;;;10.07;2.33;;;;;17.60;101835.00;;;;5062397;28;20719;-77
2023/01/05 11:48:22;;;;;;;9.07;1.90;;;;;17.60;101843.00;;;;5066080;28;20209;-77
2023/01/05 11:50:52;;;;;;;9.68;1.70;;;;;17.60;101834.00;;;;5048844;28;20203;-77
2023/01/05 11:53:35;;;;;;;9.25;2.30;;;;;17.60;101829.00;;;;5047634;28;20366;-76
2023/01/05 11:56:05;;;;;;;11.60;2.15;;;;;17.70;101821.00;;;;5048131;28;20196;-77
2023/01/05 11:58:33;;;;;;;13.10;2.40;;;;;17.70;101823.00;;;;5056641;28;20317;-77
2023/01/05 12:01:49;;;;;;;13.80;2.50;;;;;17.60;101825.00;;;;5066799;28;20226;-77
2023/01/05 12:04:44;;;;;;;7.82;2.05;;;;;17.60;101824.00;;;;5066991;28;20195;-77
2023/01/05 12:07:30;;;;;;;11.07;3.13;;;;;17.70;101827.00;;;;5067172;28;20297;-77
2023/01/05 12:10:17;;;;;;;11.57;2.35;;;;;17.80;101824.00;;;;5068558;28;20206;-77
2023/01/05 12:12:56;;;;;;;10.77;2.00;;;;;17.90;101823.00;;;;5068376;28;20225;-77
2023/01/05 12:15:42;;;;;;;9.95;2.38;;;;;17.90;101819.00;;;;5058885;28;20696;-77
2023/01/05 12:18:27;;;;;;;10.23;1.85;;;;;18.00;101817.00;;;;5046870;28;20231;-77
2023/01/05 12:21:00;;;;;;;6.80;1.73;;;;;18.10;101811.00;;;;5047856;28;20214;-77
2023/01/05 12:23:52;;;;;;;11.05;3.28;;;;;18.10;101819.00;;;;5048199;28;20603;-77
2023/01/05 12:26:24;;;;;;;12.15;2.05;;;;;18.30;101815.00;;;;5048760;28;20202;-77
2023/01/05 12:29:17;;;;;;;9.95;2.63;;;;;18.30;101812.00;;;;5067859;28;20199;-77
2023/01/05 12:32:06;;;;;;;12.70;2.40;;;;;18.40;101814.00;;;;5066355;28;20234;-77
2023/01/05 12:34:53;;;;;;;10.52;2.75;;;;;18.50;101815.00;;;;5048094;28;20569;-76
2023/01/05 12:37:32;;;;;;;9.70;1.83;;;;;18.60;101821.00;;;;5034486;28;20231;-77
2023/01/05 12:40:17;;;;;;;14.40;2.53;;;;;18.60;101822.00;;;;5053296;28;20205;-77
2023/01/05 12:43:04;;;;;;;13.23;2.30;;;;;18.60;101822.00;;;;5054675;28;20204;-77
2023/01/05 12:46:07;;;;;;;10.75;2.25;;;;;18.60;101822.00;;;;5047493;28;20281;-77
2023/01/05 12:48:37;;;;;;;10.45;2.15;;;;;18.70;101828.00;;;;5043681;28;20211;-77
2023/01/05 12:51:12;;;;;;;11.93;2.85;;;;;18.60;101811.00;;;;5067802;28;20203;-77